Time;durP1;ratioP1;P1;durP2;ratioP2;P2;SDS_P1;SDS_P2;PMS_P1;PMS_P2;Temp;Humidity;BMP_temperature;BMP_pressure;BME280_temperature;BME280_humidity;BME280_pressure;Samples;Min_cycle;Max_cycle;Signal;HPM_P1;HPM_P2
2022/05/13 00:00:21;;;;;;;26.45;6.05;;;;;;;15.68;51.44;101772.94;5216491;28;20485;-50
2022/05/13 00:02:53;;;;;;;22.73;5.68;;;;;;;15.63;51.66;101791.16;5223620;28;20427;-45
2022/05/13 00:05:26;;;;;;;21.55;5.65;;;;;;;15.60;51.73;101772.84;5224853;28;20495;-48
2022/05/13 00:07:59;;;;;;;27.25;6.80;;;;;;;15.60;51.73;101770.19;5225566;28;20451;-49
2022/05/13 00:10:33;;;;;;;25.55;6.80;;;;;;;15.60;51.73;101756.88;5224942;28;20822;-48
2022/05/13 00:13:05;;;;;;;26.88;5.88;;;;;;;15.50;51.89;101758.84;5221313;28;20411;-45
2022/05/13 00:15:40;;;;;;;30.85;6.90;;;;;;;15.53;51.96;101753.19;5222999;28;20495;-43
2022/05/13 00:18:12;;;;;;;27.63;6.40;;;;;;;15.53;52.06;101753.19;5222634;28;20412;-45
2022/05/13 00:20:45;;;;;;;31.23;6.82;;;;;;;15.53;52.09;101747.03;5195667;28;20477;-46
2022/05/13 00:23:18;;;;;;;33.47;6.38;;;;;;;15.51;52.23;101747.19;5216220;28;20399;-47
2022/05/13 00:25:52;;;;;;;26.17;6.10;;;;;;;15.48;52.43;101746.69;5226908;28;20412;-44
2022/05/13 00:28:25;;;;;;;35.93;6.77;;;;;;;15.48;52.38;101739.53;5225032;28;20411;-50
2022/05/13 00:30:59;;;;;;;33.22;6.97;;;;;;;15.47;52.39;101735.19;5225708;28;20414;-46
2022/05/13 00:33:32;;;;;;;27.10;6.40;;;;;;;15.48;52.36;101750.16;5225820;28;21009;-46
2022/05/13 00:36:05;;;;;;;30.17;7.63;;;;;;;15.51;52.54;101730.38;5225439;28;20507;-43
2022/05/13 00:38:37;;;;;;;28.00;6.45;;;;;;;15.52;52.58;101746.22;5223954;28;20474;-44
2022/05/13 00:41:11;;;;;;;29.63;6.82;;;;;;;15.46;52.64;101736.19;5195029;28;20406;-43
2022/05/13 00:43:52;;;;;;;34.07;8.23;;;;;;;15.53;52.71;101739.06;5194767;28;20469;-45
2022/05/13 00:46:26;;;;;;;29.03;6.43;;;;;;;15.28;52.79;101714.16;5203550;28;20411;-46
2022/05/13 00:49:03;;;;;;;35.78;8.60;;;;;;;15.47;52.66;101723.72;5206629;28;20489;-42
2022/05/13 00:51:39;;;;;;;27.88;6.40;;;;;;;15.52;52.79;101724.09;5226054;28;20652;-44
2022/05/13 00:54:14;;;;;;;29.52;6.10;;;;;;;15.55;52.99;101727.25;5225101;28;20397;-45
2022/05/13 00:56:49;;;;;;;22.13;6.18;;;;;;;15.47;53.08;101715.72;5223047;28;20447;-48
2022/05/13 00:59:26;;;;;;;31.35;6.68;;;;;;;15.58;53.00;101726.09;5216271;28;20767;-48
2022/05/13 01:01:59;;;;;;;26.48;7.45;;;;;;;15.52;53.07;101716.09;5222983;28;20494;-45
2022/05/13 01:04:34;;;;;;;29.43;5.70;;;;;;;15.40;53.18;101697.75;5185754;28;20412;-46
2022/05/13 01:07:15;;;;;;;37.67;6.83;;;;;;;15.51;53.27;101725.88;5225735;28;20503;-48
2022/05/13 01:09:52;;;;;;;29.85;5.93;;;;;;;15.51;53.34;101722.41;5181234;28;20525;-44
2022/05/13 01:12:32;;;;;;;27.05;5.45;;;;;;;15.31;53.39;101689.88;5226694;28;20961;-45
2022/05/13 01:15:12;;;;;;;35.50;7.30;;;;;;;15.48;53.43;101712.91;5224963;28;20489;-44
2022/05/13 01:20:51;;;;;;;30.02;7.55;;;;;;;15.50;53.88;101712.75;5151845;28;20419;-48
2022/05/13 01:23:30;;;;;;;29.67;6.22;;;;;;;15.37;53.72;101691.91;5147205;28;20460;-47
2022/05/13 01:26:07;;;;;;;28.63;6.88;;;;;;;15.32;53.75;101671.09;5194473;28;20508;-47
2022/05/13 01:28:43;;;;;;;37.20;6.73;;;;;;;15.05;53.83;101626.94;5211621;28;20427;-46
2022/05/13 01:31:24;;;;;;;27.35;6.15;;;;;;;15.37;53.98;101689.25;5223871;28;20418;-46
2022/05/13 01:33:57;;;;;;;24.60;5.90;;;;;;;15.54;54.14;101704.25;5211078;28;20421;-43
2022/05/13 01:36:31;;;;;;;19.30;4.85;;;;;;;15.55;54.06;101708.63;5225183;28;20510;-46
2022/05/13 01:39:09;;;;;;;27.75;5.32;;;;;;;15.56;54.05;101706.78;5222655;28;21054;-49
2022/05/13 01:41:41;;;;;;;29.52;6.18;;;;;;;15.47;54.05;101692.59;5213738;28;20423;-46
2022/05/13 01:44:14;;;;;;;23.30;6.13;;;;;;;15.47;53.97;101689.13;5222808;28;20408;-47
2022/05/13 01:46:46;;;;;;;21.90;5.22;;;;;;;15.53;53.97;101704.44;5221110;28;20421;-45
2022/05/13 01:49:19;;;;;;;24.80;6.35;;;;;;;15.62;54.04;101709.63;5218503;28;20412;-49
2022/05/13 01:51:51;;;;;;;24.60;6.00;;;;;;;15.65;53.86;101724.47;5223091;28;20442;-48
2022/05/13 01:54:25;;;;;;;26.92;5.30;;;;;;;15.69;53.92;101709.84;5221464;28;20451;-44
2022/05/13 01:56:57;;;;;;;27.20;5.40;;;;;;;15.67;53.80;101701.22;5198185;28;20515;-43
2022/05/13 01:59:32;;;;;;;18.60;4.95;;;;;;;15.64;53.88;101694.34;5220994;28;20480;-45
2022/05/13 02:02:05;;;;;;;23.17;5.65;;;;;;;15.52;53.83;101674.31;5214230;28;20777;-47
2022/05/13 02:04:38;;;;;;;18.25;4.93;;;;;;;15.63;53.75;101684.66;5203790;28;20410;-48
2022/05/13 02:07:10;;;;;;;19.75;5.10;;;;;;;15.64;53.65;101686.34;5208375;28;20396;-44
2022/05/13 02:09:44;;;;;;;18.25;4.35;;;;;;;15.61;53.54;101691.16;5221528;28;20499;-48
2022/05/13 02:12:17;;;;;;;16.50;4.18;;;;;;;15.59;53.54;101693.16;5224496;28;20526;-47
2022/05/13 02:14:50;;;;;;;19.95;4.57;;;;;;;15.54;53.54;101674.16;5219287;28;20433;-45
2022/05/13 02:17:22;;;;;;;26.02;5.47;;;;;;;15.59;53.40;101693.16;5221084;28;20435;-45
2022/05/13 02:19:55;;;;;;;20.63;5.40;;;;;;;15.59;53.27;101687.81;5220944;28;20435;-45
2022/05/13 02:22:27;;;;;;;24.67;5.33;;;;;;;15.57;53.19;101692.47;5223359;28;20519;-47
2022/05/13 02:25:02;;;;;;;26.95;6.60;;;;;;;15.46;53.22;101659.00;5224231;28;20422;-46
2022/05/13 02:27:34;;;;;;;22.67;6.13;;;;;;;15.48;53.25;101658.81;5226131;28;20520;-43
2022/05/13 02:30:09;;;;;;;27.50;5.07;;;;;;;15.49;53.18;101685.31;5222423;28;20412;-47
2022/05/13 02:32:42;;;;;;;22.95;5.80;;;;;;;15.46;53.17;101664.31;5223611;28;20398;-45
2022/05/13 02:35:14;;;;;;;18.30;4.50;;;;;;;15.40;53.18;101678.28;5219787;28;20416;-44
2022/05/13 02:37:47;;;;;;;25.83;5.70;;;;;;;15.32;53.23;101667.59;5205765;28;20492;-46
2022/05/13 02:41:11;;;;;;;27.48;6.22;;;;;;;15.37;53.29;101689.25;5189184;28;21002;-44
2022/05/13 02:43:14;;;;;;;17.70;4.65;;;;;;;15.28;53.24;101680.38;5217833;28;20434;-45
2022/05/13 02:45:50;;;;;;;15.70;5.00;;;;;;;15.30;53.34;101690.88;5218201;28;20488;-43
2022/05/13 02:48:22;;;;;;;19.73;5.25;;;;;;;15.29;53.36;101684.72;5217125;28;20969;-45
2022/05/13 02:50:54;;;;;;;14.10;4.63;;;;;;;15.12;53.39;101667.84;5221603;28;20509;-45
2022/05/13 02:53:29;;;;;;;10.00;3.50;;;;;;;15.16;53.29;101671.03;5186592;28;20897;-47
2022/05/13 02:56:05;;;;;;;16.20;3.72;;;;;;;15.21;53.40;101682.03;5206150;28;20492;-44
2022/05/13 02:58:39;;;;;;;13.50;3.03;;;;;;;15.08;53.21;101652.34;5223554;28;20813;-44
2022/05/13 03:01:14;;;;;;;12.48;3.60;;;;;;;15.07;53.16;101651.53;5218015;28;20419;-47
2022/05/13 03:03:49;;;;;;;14.80;3.40;;;;;;;15.31;53.07;101711.19;5199022;28;20453;-41
2022/05/13 03:06:22;;;;;;;15.80;3.20;;;;;;;15.32;52.87;101691.53;5161809;28;20405;-44
2022/05/13 03:08:55;;;;;;;14.90;3.47;;;;;;;15.25;52.79;101693.19;5204343;28;20443;-45
2022/05/13 03:11:29;;;;;;;20.25;4.43;;;;;;;15.30;52.62;101693.53;5202479;28;20465;-48
2022/05/13 03:14:02;;;;;;;12.65;3.33;;;;;;;15.21;52.73;101685.53;5149297;28;20510;-47
2022/05/13 03:16:34;;;;;;;11.63;2.90;;;;;;;15.27;52.57;101693.84;5220117;28;20427;-43
2022/05/13 03:19:07;;;;;;;13.63;3.38;;;;;;;15.16;52.49;101671.84;5192146;28;21803;-46
2022/05/13 03:21:39;;;;;;;10.48;3.10;;;;;;;15.07;52.49;101662.16;5203899;28;20427;-48
2022/05/13 03:24:15;;;;;;;16.98;3.70;;;;;;;15.25;52.40;101696.69;5188304;28;20419;-49
2022/05/13 03:26:48;;;;;;;10.65;2.75;;;;;;;15.27;52.13;101693.84;5220803;28;20440;-43
2022/05/13 03:29:21;;;;;;;11.02;3.38;;;;;;;15.14;52.13;101673.84;5201063;28;20424;-46
2022/05/13 03:31:56;;;;;;;10.50;3.42;;;;;;;15.14;52.08;101684.50;5200314;28;20746;-45
2022/05/13 03:34:28;;;;;;;9.85;3.60;;;;;;;15.23;52.04;101704.81;5193459;28;20437;-44
2022/05/13 03:37:04;;;;;;;10.35;3.20;;;;;;;15.27;52.04;101704.47;5202477;28;20821;-47
2022/05/13 03:39:37;;;;;;;12.93;3.13;;;;;;;15.21;51.93;101690.84;5183800;28;20511;-45
2022/05/13 03:42:11;;;;;;;9.80;3.75;;;;;;;15.03;51.79;101663.47;5168091;28;20428;-45
2022/05/13 03:44:44;;;;;;;18.30;3.75;;;;;;;15.13;51.74;101666.84;5201707;28;20421;-46
2022/05/13 03:47:17;;;;;;;13.00;4.35;;;;;;;15.28;51.70;101690.22;5184736;28;20498;-45
2022/05/13 03:49:50;;;;;;;14.07;4.18;;;;;;;15.32;51.59;101678.25;5191509;28;20543;-46
2022/05/13 03:52:23;;;;;;;19.15;4.38;;;;;;;15.36;51.51;101690.22;5223543;28;20520;-48
2022/05/13 03:54:55;;;;;;;11.90;3.67;;;;;;;15.30;51.41;101685.53;5204037;28;20428;-48
2022/05/13 03:57:31;;;;;;;13.02;4.05;;;;;;;15.23;51.58;101669.38;5222388;28;20435;-47
2022/05/13 04:00:09;;;;;;;16.20;3.97;;;;;;;15.25;51.44;101680.72;5190483;28;20504;-45
2022/05/13 04:02:42;;;;;;;13.70;4.00;;;;;;;15.03;51.52;101634.22;5215679;28;21180;-48
2022/05/13 04:10:56;;;;;;;12.70;3.60;;;;;;;15.30;51.75;101705.03;5221688;28;20496;-44
2022/05/13 04:16:20;;;;;;;14.53;3.30;;;;;;;15.34;51.95;101721.50;5185283;28;20403;-44
2022/05/13 04:18:53;;;;;;;10.33;3.07;;;;;;;15.17;51.84;101686.84;5186563;28;20486;-48
2022/05/13 04:21:29;;;;;;;11.18;3.67;;;;;;;15.41;51.85;101711.88;5209577;28;20932;-45
2022/05/13 04:24:07;;;;;;;15.40;4.38;;;;;;;15.44;51.81;101714.22;5219309;28;20451;-45
2022/05/13 04:26:39;;;;;;;17.02;4.10;;;;;;;15.35;51.67;101692.06;5198151;28;20465;-45
2022/05/13 04:29:13;;;;;;;15.70;4.30;;;;;;;15.25;51.87;101685.22;5199558;28;20429;-46
2022/05/13 04:31:47;;;;;;;16.88;3.50;;;;;;;15.12;51.76;101653.72;5199782;28;20400;-49
2022/05/13 04:34:20;;;;;;;10.25;3.63;;;;;;;15.32;51.90;101696.88;5205897;28;20408;-43
2022/05/13 04:36:52;;;;;;;18.30;4.50;;;;;;;15.35;51.79;101701.88;5210309;28;20537;-47
2022/05/13 04:39:25;;;;;;;14.13;3.70;;;;;;;15.37;51.89;101711.38;5201039;28;20418;-45
2022/05/13 04:44:49;;;;;;;12.50;3.50;;;;;;;15.15;52.03;101680.84;5213452;28;20889;-42
2022/05/13 04:50:12;;;;;;;10.98;3.72;;;;;;;15.43;52.14;101723.22;5197820;28;20402;-47
2022/05/13 04:52:44;;;;;;;14.52;4.00;;;;;;;15.50;52.27;101750.84;5215389;28;20412;-46
2022/05/13 04:55:17;;;;;;;20.92;3.90;;;;;;;15.46;52.15;101720.22;5214080;28;20925;-49
2022/05/13 04:57:50;;;;;;;14.75;3.47;;;;;;;15.39;52.28;101714.72;5213252;28;20415;-44
2022/05/13 05:00:27;;;;;;;16.15;3.85;;;;;;;15.58;52.18;101742.91;5226020;28;20805;-44
2022/05/13 05:03:02;;;;;;;15.63;3.70;;;;;;;15.45;52.11;101714.06;5211036;28;20524;-50
2022/05/13 05:05:34;;;;;;;13.98;3.60;;;;;;;15.17;52.09;101673.53;5219689;28;20908;-44
2022/05/13 05:08:08;;;;;;;19.63;3.70;;;;;;;15.73;52.08;101752.97;5221406;28;20892;-46
2022/05/13 05:10:42;;;;;;;17.23;4.43;;;;;;;15.67;51.93;101749.97;5224765;28;20915;-48
2022/05/13 05:13:22;;;;;;;14.27;3.55;;;;;;;15.61;52.08;101739.94;5225810;28;20465;-48
2022/05/13 05:15:57;;;;;;;14.80;4.38;;;;;;;15.78;52.21;101777.28;5218450;28;20411;-45
2022/05/13 05:18:31;;;;;;;20.67;4.50;;;;;;;15.74;52.10;101765.31;5211548;28;20427;-44
2022/05/13 05:21:05;;;;;;;19.10;4.75;;;;;;;15.77;52.11;101759.66;5226067;28;20416;-46
2022/05/13 05:23:41;;;;;;;13.60;3.45;;;;;;;15.85;52.17;101775.66;5225717;28;21271;-44
2022/05/13 05:26:17;;;;;;;23.70;3.92;;;;;;;15.88;52.19;101776.16;5212791;28;20900;-49
2022/05/13 05:28:51;;;;;;;18.80;4.28;;;;;;;15.86;52.02;101769.34;5195333;28;20492;-45
2022/05/13 05:31:25;;;;;;;9.10;2.92;;;;;;;15.94;52.09;101784.50;5222297;28;20443;-50
2022/05/13 05:33:59;;;;;;;13.97;3.07;;;;;;;15.90;52.24;101792.00;5224255;28;20431;-51
2022/05/13 05:36:31;;;;;;;11.73;3.70;;;;;;;15.91;52.00;101786.47;5223737;28;20451;-49
2022/05/13 05:39:04;;;;;;;12.82;3.20;;;;;;;15.92;51.96;101795.34;5194767;28;20949;-47
2022/05/13 05:41:36;;;;;;;13.30;3.20;;;;;;;15.74;51.98;101770.63;5228153;28;20957;-45
2022/05/13 05:44:09;;;;;;;9.60;3.08;;;;;;;15.90;51.84;101789.31;5225664;28;20888;-47
2022/05/13 05:46:44;;;;;;;14.07;2.83;;;;;;;16.02;51.68;101811.19;5223186;28;20404;-46
2022/05/13 05:49:16;;;;;;;15.90;3.72;;;;;;;16.07;51.46;101799.03;5224079;28;20419;-46
2022/05/13 05:51:49;;;;;;;14.20;3.25;;;;;;;16.06;51.41;101802.69;5223092;28;20564;-49
2022/05/13 05:57:14;;;;;;;14.07;3.65;;;;;;;15.99;51.33;101780.34;5213717;28;20392;-47
2022/05/13 05:59:48;;;;;;;13.13;3.08;;;;;;;16.06;51.21;101802.69;5223070;28;20408;-50
2022/05/13 06:02:22;;;;;;;11.05;2.88;;;;;;;16.22;51.00;101811.72;5219858;28;20546;-47
2022/05/13 06:04:55;;;;;;;13.77;3.25;;;;;;;16.30;50.90;101819.75;5225331;28;20552;-47
2022/05/13 06:07:30;;;;;;;15.50;3.13;;;;;;;16.39;50.84;101821.44;5222180;28;20530;-46
2022/05/13 06:10:02;;;;;;;13.50;3.33;;;;;;;16.48;50.60;101812.44;5226900;28;20416;-48
2022/05/13 06:12:35;;;;;;;11.32;2.70;;;;;;;16.68;50.53;101820.97;5218346;28;20419;-52
2022/05/13 06:15:09;;;;;;;8.73;2.50;;;;;;;16.69;50.26;101811.13;5205817;28;20427;-50
2022/05/13 06:17:49;;;;;;;9.75;2.67;;;;;;;16.90;50.24;101822.16;5221384;28;20430;-52
2022/05/13 06:20:25;;;;;;;11.90;2.47;;;;;;;17.02;50.10;101823.47;5218182;28;20908;-51
2022/05/13 06:23:00;;;;;;;9.98;2.70;;;;;;;16.91;49.99;101765.13;5223822;28;20498;-52
2022/05/13 06:25:33;;;;;;;11.40;2.42;;;;;;;17.55;49.58;101823.06;5221782;28;20435;-50
2022/05/13 06:28:07;;;;;;;7.97;2.55;;;;;;;18.76;48.79;101834.16;5221423;28;20412;-47
2022/05/13 06:30:39;;;;;;;11.30;2.35;;;;;;;20.21;46.88;101826.56;5212368;28;20865;-47
2022/05/13 06:33:13;;;;;;;7.43;2.03;;;;;;;21.28;46.10;101838.31;5211788;28;21006;-47
2022/05/13 06:35:49;;;;;;;12.23;2.55;;;;;;;22.34;44.67;101822.69;5221293;28;20412;-52
2022/05/13 06:38:25;;;;;;;8.10;2.10;;;;;;;23.97;42.92;101819.41;5217831;28;20811;-52
2022/05/13 06:40:59;;;;;;;12.80;2.40;;;;;;;25.41;41.44;101823.16;5219349;28;20430;-53
2022/05/13 06:43:33;;;;;;;8.67;1.90;;;;;;;26.60;40.18;101832.47;5215325;28;20507;-53
2022/05/13 06:46:06;;;;;;;7.03;1.87;;;;;;;27.47;39.41;101831.81;5217484;28;20526;-54
2022/05/13 06:48:40;;;;;;;9.20;2.00;;;;;;;27.27;38.80;101760.84;5211572;28;20445;-53
2022/05/13 06:51:13;;;;;;;5.00;1.67;;;;;;;28.26;38.08;101812.19;5202264;28;20547;-53
2022/05/13 06:53:47;;;;;;;7.13;1.83;;;;;;;29.08;37.30;101825.28;5217931;28;20938;-55
2022/05/13 06:56:19;;;;;;;7.40;1.63;;;;;;;29.42;36.84;101798.81;5210497;28;20408;-53
2022/05/13 06:58:52;;;;;;;9.00;1.92;;;;;;;30.14;36.28;101848.69;5210960;28;20415;-51
2022/05/13 07:01:24;;;;;;;5.38;1.45;;;;;;;30.17;35.96;101815.47;5219200;28;20427;-53
2022/05/13 07:03:58;;;;;;;7.90;2.10;;;;;;;30.23;35.96;101836.28;5221230;28;20819;-52
2022/05/13 07:06:31;;;;;;;7.05;1.70;;;;;;;30.26;35.77;101841.22;5199615;28;20773;-54
2022/05/13 07:09:04;;;;;;;12.05;1.98;;;;;;;30.35;35.61;101843.44;5227008;28;20807;-49
2022/05/13 07:11:36;;;;;;;10.93;2.05;;;;;;;30.53;35.23;101838.44;5223281;28;20458;-54
2022/05/13 07:14:09;;;;;;;5.55;1.80;;;;;;;30.65;34.84;101854.63;5224261;28;20976;-51
2022/05/13 07:16:44;;;;;;;9.45;2.25;;;;;;;30.78;34.72;101858.84;5195607;28;20408;-52
2022/05/13 07:19:18;;;;;;;8.25;1.75;;;;;;;30.85;34.74;101853.19;5224418;28;20499;-54
2022/05/13 07:21:51;;;;;;;7.93;2.13;;;;;;;30.74;34.78;101858.53;5202231;28;20404;-55
2022/05/13 07:24:24;;;;;;;10.25;2.03;;;;;;;30.32;34.90;101853.81;5221603;28;20451;-51
2022/05/13 07:26:58;;;;;;;5.22;1.70;;;;;;;30.12;35.20;101867.19;5222529;28;20554;-53
2022/05/13 07:29:31;;;;;;;6.78;1.48;;;;;;;29.97;35.03;101870.53;5225082;28;20788;-53
2022/05/13 07:32:03;;;;;;;8.38;2.35;;;;;;;29.86;35.00;101869.63;5217786;28;20885;-54
2022/05/13 07:34:37;;;;;;;8.15;1.90;;;;;;;29.59;35.06;101868.69;5222362;28;20431;-54
2022/05/13 07:37:10;;;;;;;8.40;1.90;;;;;;;29.31;35.22;101862.31;5222510;28;20835;-54
2022/05/13 07:42:32;;;;;;;9.80;2.15;;;;;;;29.05;35.46;101882.06;5221610;28;20824;-51
2022/05/13 07:45:06;;;;;;;34.67;6.32;;;;;;;28.88;35.37;101884.75;5223920;28;20518;-55
2022/05/13 07:47:39;;;;;;;8.00;2.17;;;;;;;28.57;35.53;101872.53;5222267;28;20453;-56
2022/05/13 07:50:16;;;;;;;7.05;1.70;;;;;;;28.31;35.65;101877.50;5209011;28;20585;-54
2022/05/13 07:52:50;;;;;;;7.72;1.73;;;;;;;27.97;35.83;101890.97;5191500;28;21028;-49
2022/05/13 07:55:22;;;;;;;10.60;1.90;;;;;;;27.54;35.76;101880.53;5203638;28;20430;-53
2022/05/13 07:57:55;;;;;;;7.53;1.90;;;;;;;27.33;35.93;101899.03;5221645;28;20423;-54
2022/05/13 08:00:29;;;;;;;8.95;2.10;;;;;;;26.86;36.20;101880.00;5225078;28;20751;-53
2022/05/13 08:03:05;;;;;;;8.73;2.28;;;;;;;26.04;36.22;101836.34;5221587;28;20431;-55
2022/05/13 08:05:43;;;;;;;7.10;1.95;;;;;;;26.05;36.44;101892.19;5222961;28;20439;-50
2022/05/13 08:08:20;;;;;;;8.57;1.67;;;;;;;25.91;36.45;101915.03;5210589;28;20530;-51
2022/05/13 08:10:56;;;;;;;5.73;2.10;;;;;;;25.41;36.63;101888.88;5213432;28;20814;-52
2022/05/13 08:13:31;;;;;;;13.15;2.85;;;;;;;25.16;36.67;101917.81;5219329;28;20939;-52
2022/05/13 08:16:08;;;;;;;6.85;1.48;;;;;;;24.71;37.04;101918.72;5223793;28;20438;-51
2022/05/13 08:18:41;;;;;;;7.60;2.22;;;;;;;24.28;37.50;101908.56;5222016;28;20473;-51
2022/05/13 08:21:15;;;;;;;11.00;2.15;;;;;;;24.22;37.31;101912.13;5222594;28;20399;-52
2022/05/13 08:23:47;;;;;;;6.30;2.28;;;;;;;23.97;37.35;101871.53;5223147;28;20423;-48
2022/05/13 08:26:20;;;;;;;10.00;1.98;;;;;;;24.27;37.04;101920.38;5219849;28;20447;-50
2022/05/13 08:28:53;;;;;;;8.47;1.80;;;;;;;24.16;37.11;101924.59;5220937;28;20885;-48
2022/05/13 08:31:25;;;;;;;6.13;2.00;;;;;;;23.89;37.28;101929.25;5221136;28;20443;-52
2022/05/13 08:33:58;;;;;;;12.98;1.77;;;;;;;23.75;37.43;101924.91;5222176;28;20424;-52
2022/05/13 08:36:35;;;;;;;12.50;2.13;;;;;;;23.67;37.42;101925.13;5220820;28;20507;-51
2022/05/13 08:39:10;;;;;;;11.15;2.33;;;;;;;23.48;37.36;101894.47;5221279;28;22299;-53
2022/05/13 08:42:00;;;;;;;8.77;2.05;;;;;;;23.60;37.12;101913.50;5218423;28;20427;-49
2022/05/13 08:44:33;;;;;;;8.65;1.60;;;;;;;23.60;37.15;101919.75;5210376;28;20864;-51
2022/05/13 08:47:14;;;;;;;8.68;2.67;;;;;;;23.61;37.44;101920.56;5223426;28;20420;-50
2022/05/13 08:49:54;;;;;;;10.23;1.98;;;;;;;23.71;37.34;101931.78;5212575;28;20423;-49
2022/05/13 08:55:36;;;;;;;9.93;1.85;;;;;;;23.87;37.04;101936.72;5196985;28;20484;-54
2022/05/13 08:58:16;;;;;;;11.40;2.33;;;;;;;23.93;37.11;101945.84;5209374;28;20816;-52
2022/05/13 09:00:55;;;;;;;13.90;2.33;;;;;;;23.67;37.12;101919.72;5215587;28;20920;-45
2022/05/13 09:03:38;;;;;;;10.67;2.80;;;;;;;23.91;37.03;101942.53;5218691;28;20470;-50
2022/05/13 09:06:19;;;;;;;10.73;1.93;;;;;;;23.86;36.98;101940.47;5220814;28;20501;-50
2022/05/13 09:08:56;;;;;;;10.93;2.63;;;;;;;24.09;36.78;101956.16;5190012;28;20425;-50
2022/05/13 09:11:33;;;;;;;11.07;2.78;;;;;;;24.10;36.88;101952.44;5215853;28;20424;-52
2022/05/13 09:14:23;;;;;;;10.65;2.38;;;;;;;24.18;36.89;101948.66;5220113;28;20407;-48
2022/05/13 09:17:20;;;;;;;11.10;2.10;;;;;;;24.28;36.56;101957.16;5220645;28;20419;-53
2022/05/13 09:19:58;;;;;;;10.55;2.15;;;;;;;24.20;36.46;101937.66;5222847;28;20427;-53
2022/05/13 09:22:39;;;;;;;6.60;2.10;;;;;;;24.16;36.48;101923.78;5221744;28;20430;-52
2022/05/13 09:25:21;;;;;;;7.88;2.25;;;;;;;24.28;36.54;101940.97;5222368;28;20427;-49
2022/05/13 09:28:00;;;;;;;7.75;2.03;;;;;;;24.27;36.61;101939.28;5220293;28;20408;-51
2022/05/13 09:30:37;;;;;;;9.70;2.13;;;;;;;24.47;36.38;101957.31;5216461;28;20862;-50
2022/05/13 09:33:21;;;;;;;9.13;2.00;;;;;;;24.61;36.14;101953.50;5215391;28;20476;-51
2022/05/13 09:35:57;;;;;;;13.27;2.50;;;;;;;24.47;36.10;101946.53;5221026;28;20435;-52
2022/05/13 09:38:34;;;;;;;10.98;2.08;;;;;;;24.42;36.26;101947.16;5218637;28;20497;-54
2022/05/13 09:42:01;;;;;;;7.93;1.90;;;;;;;24.45;36.10;101960.22;5199983;28;20509;-49
2022/05/13 09:44:52;;;;;;;10.43;2.03;;;;;;;24.36;36.22;101983.91;5205634;28;20426;-51
2022/05/13 09:47:31;;;;;;;9.40;1.92;;;;;;;24.33;36.25;101957.31;5208486;28;20778;-49
2022/05/13 09:50:15;;;;;;;12.35;2.45;;;;;;;24.32;36.30;101958.38;5210543;28;20430;-48
2022/05/13 09:52:51;;;;;;;7.80;2.17;;;;;;;23.99;35.98;101879.41;5209296;28;20489;-49
2022/05/13 09:55:32;;;;;;;12.00;2.80;;;;;;;24.66;35.70;101967.19;5209153;28;20517;-49
2022/05/13 09:58:10;;;;;;;9.68;2.30;;;;;;;24.44;35.83;101930.75;5211563;28;20732;-49
2022/05/13 10:00:44;;;;;;;9.35;2.15;;;;;;;24.70;35.69;101965.69;5212654;28;20419;-51
2022/05/13 10:03:21;;;;;;;9.43;2.83;;;;;;;24.78;35.70;101960.06;5214641;28;20411;-51
2022/05/13 10:06:05;;;;;;;10.23;2.30;;;;;;;24.65;35.67;101964.69;5208347;28;20411;-49
2022/05/13 10:08:46;;;;;;;14.27;2.42;;;;;;;24.52;35.77;101971.00;5189073;28;20501;-49
2022/05/13 10:14:34;;;;;;;10.68;2.70;;;;;;;24.35;35.85;101971.44;5196442;28;20415;-50
2022/05/13 10:17:12;;;;;;;8.13;2.25;;;;;;;24.34;35.95;101968.94;5192781;28;21102;-53
2022/05/13 10:19:52;;;;;;;9.75;2.10;;;;;;;24.26;35.69;101955.72;5191782;28;20917;-49
2022/05/13 10:22:32;;;;;;;11.60;2.47;;;;;;;24.44;35.70;101979.34;5185741;28;20564;-51
2022/05/13 10:25:12;;;;;;;8.10;2.03;;;;;;;24.09;35.58;101933.75;5184082;28;20446;-49
2022/05/13 10:27:51;;;;;;;13.73;2.10;;;;;;;24.50;35.63;101995.53;5165477;28;20438;-50
2022/05/13 10:30:40;;;;;;;6.85;2.20;;;;;;;24.60;35.52;101981.56;5183551;28;20418;-48
2022/05/13 10:33:20;;;;;;;11.93;3.03;;;;;;;24.56;35.47;101978.47;5174503;28;20440;-51
2022/05/13 10:35:58;;;;;;;8.73;2.97;;;;;;;24.59;35.45;101971.81;5185102;28;20617;-50
2022/05/13 10:38:35;;;;;;;10.10;2.33;;;;;;;24.67;35.08;101985.03;5181523;28;20436;-51
2022/05/13 10:41:30;;;;;;;9.55;2.90;;;;;;;24.62;35.18;101957.84;5198084;28;20440;-50
2022/05/13 10:44:11;;;;;;;9.45;2.17;;;;;;;24.65;35.08;101970.91;5189040;28;20410;-49
2022/05/13 10:46:49;;;;;;;6.55;1.95;;;;;;;24.46;35.26;101942.16;5183092;28;20807;-50
2022/05/13 10:49:24;;;;;;;11.70;2.42;;;;;;;24.71;35.40;101983.56;5183190;28;20438;-49
2022/05/13 10:52:06;;;;;;;11.10;3.53;;;;;;;24.64;35.20;101977.38;5195125;28;20482;-50
2022/05/13 10:54:52;;;;;;;10.40;2.78;;;;;;;24.52;35.34;101976.38;5196979;28;20403;-47
2022/05/13 10:57:34;;;;;;;8.57;2.35;;;;;;;24.46;35.32;101982.66;5196027;28;20570;-47
2022/05/13 11:00:15;;;;;;;15.50;3.47;;;;;;;24.45;35.49;101976.44;5199957;28;20424;-48
2022/05/13 11:03:36;;;;;;;13.97;2.33;;;;;;;24.42;35.32;101966.06;5189192;28;20522;-46
2022/05/13 11:06:24;;;;;;;10.48;2.38;;;;;;;24.41;35.02;101963.56;5182738;28;20781;-50
2022/05/13 11:09:05;;;;;;;9.55;2.05;;;;;;;24.56;35.10;101967.66;5186522;28;20816;-47
2022/05/13 11:11:43;;;;;;;9.13;2.40;;;;;;;24.75;35.05;101984.81;5192192;28;20421;-50
2022/05/13 11:14:42;;;;;;;12.98;2.90;;;;;;;24.75;34.85;101981.28;5198975;28;20424;-49
2022/05/13 11:17:30;;;;;;;8.52;2.20;;;;;;;24.85;34.91;101989.72;5195130;28;20410;-46
2022/05/13 11:20:20;;;;;;;17.38;2.85;;;;;;;24.93;34.84;101999.44;5195597;28;20431;-46
2022/05/13 11:23:08;;;;;;;10.73;2.80;;;;;;;24.61;34.96;101983.22;5191291;28;20431;-47
2022/05/13 11:25:56;;;;;;;16.48;2.55;;;;;;;24.44;35.01;101979.34;5161637;28;20442;-47
2022/05/13 11:29:02;;;;;;;13.20;3.05;;;;;;;24.53;35.17;101999.69;5168603;28;20441;-49
2022/05/13 11:32:09;;;;;;;11.70;2.72;;;;;;;24.44;35.23;102000.97;5180641;28;20846;-52
2022/05/13 11:35:09;;;;;;;9.75;3.03;;;;;;;24.22;35.37;101993.09;5191829;28;20414;-45
2022/05/13 11:37:46;;;;;;;15.23;3.23;;;;;;;24.07;35.52;101989.81;5194599;28;20429;-45
2022/05/13 11:40:29;;;;;;;14.55;3.40;;;;;;;23.90;35.67;101957.88;5197936;28;20936;-43
2022/05/13 11:43:31;;;;;;;15.23;3.33;;;;;;;24.28;35.51;102004.91;5197087;28;20913;-49
2022/05/13 11:46:44;;;;;;;15.85;3.10;;;;;;;24.30;35.44;102009.06;5196284;28;20839;-49
2022/05/13 11:49:23;;;;;;;11.45;2.65;;;;;;;24.13;35.63;102010.56;5193931;28;20778;-52
2022/05/13 11:52:04;;;;;;;10.77;2.30;;;;;;;24.08;35.78;102013.06;5139998;28;20443;-48
2022/05/13 11:54:38;;;;;;;13.07;2.60;;;;;;;23.95;35.76;101983.41;5201921;28;20910;-47
2022/05/13 11:57:27;;;;;;;11.13;2.65;;;;;;;24.10;35.71;102013.69;5197787;28;20584;-51
2022/05/13 12:00:38;;;;;;;10.35;2.20;;;;;;;24.09;35.76;102014.72;5145955;28;20413;-53
2022/05/13 12:03:19;;;;;;;11.13;2.60;;;;;;;23.95;35.84;102018.50;5192422;28;20413;-51
2022/05/13 12:06:05;;;;;;;12.63;2.45;;;;;;;24.10;35.82;102000.19;5196683;28;20528;-51
2022/05/13 12:08:46;;;;;;;16.08;3.42;;;;;;;24.28;35.71;102023.78;5194144;28;20436;-49
2022/05/13 12:11:46;;;;;;;14.75;3.40;;;;;;;24.22;35.75;102022.81;5196839;28;20424;-49
2022/05/13 12:14:27;;;;;;;10.95;3.00;;;;;;;24.14;35.96;102013.03;5191547;28;20413;-52
2022/05/13 12:17:11;;;;;;;12.25;3.22;;;;;;;23.82;35.98;101987.78;5191131;28;20428;-48
2022/05/13 12:19:56;;;;;;;10.43;2.37;;;;;;;24.07;35.98;102016.81;5190611;28;20844;-51
2022/05/13 12:22:48;;;;;;;12.05;2.95;;;;;;;23.88;36.04;101973.47;5189931;28;20417;-48
2022/05/13 12:25:52;;;;;;;16.13;3.35;;;;;;;24.25;35.87;102018.81;5189789;28;20541;-53
2022/05/13 12:28:57;;;;;;;12.93;2.47;;;;;;;24.01;36.01;101985.28;5185690;28;20840;-48
2022/05/13 12:31:48;;;;;;;15.80;2.80;;;;;;;24.15;36.08;102011.16;5167338;28;20427;-48
2022/05/13 12:37:38;;;;;;;12.52;3.10;;;;;;;23.93;36.34;102022.22;5186804;28;20929;-47